sensor_id;sensor_type;location;lat;lon;timestamp;P1;durP1;ratioP1;P2;durP2;ratioP2
77160;SDS011;66135;0.000;0.000;2023-08-08T00:00:48;0.88;;;0.88;;
77160;SDS011;66135;0.000;0.000;2023-08-08T00:03:14;0.90;;;0.70;;
77160;SDS011;66135;0.000;0.000;2023-08-08T00:05:39;0.75;;;0.75;;
77160;SDS011;66135;0.000;0.000;2023-08-08T00:08:05;0.85;;;0.55;;
77160;SDS011;66135;0.000;0.000;2023-08-08T00:10:31;1.15;;;0.73;;
77160;SDS011;66135;0.000;0.000;2023-08-08T00:12:57;1.20;;;0.75;;
77160;SDS011;66135;0.000;0.000;2023-08-08T00:15:22;0.77;;;0.68;;
77160;SDS011;66135;0.000;0.000;2023-08-08T00:17:47;1.08;;;0.88;;
77160;SDS011;66135;0.000;0.000;2023-08-08T00:20:13;0.93;;;0.65;;
77160;SDS011;66135;0.000;0.000;2023-08-08T00:22:38;1.23;;;1.13;;
77160;SDS011;66135;0.000;0.000;2023-08-08T00:25:04;1.13;;;0.80;;
77160;SDS011;66135;0.000;0.000;2023-08-08T00:27:29;0.57;;;0.57;;
77160;SDS011;66135;0.000;0.000;2023-08-08T00:29:55;0.57;;;0.57;;
77160;SDS011;66135;0.000;0.000;2023-08-08T00:34:45;0.30;;;0.20;;
77160;SDS011;66135;0.000;0.000;2023-08-08T00:39:36;1.77;;;1.13;;
77160;SDS011;66135;0.000;0.000;2023-08-08T00:42:02;0.98;;;0.85;;
77160;SDS011;66135;0.000;0.000;2023-08-08T00:46:53;0.80;;;0.50;;
77160;SDS011;66135;0.000;0.000;2023-08-08T00:49:18;0.60;;;0.60;;
77160;SDS011;66135;0.000;0.000;2023-08-08T00:51:44;1.08;;;0.82;;
77160;SDS011;66135;0.000;0.000;2023-08-08T00:54:10;0.98;;;0.90;;
77160;SDS011;66135;0.000;0.000;2023-08-08T00:56:36;1.42;;;0.32;;
77160;SDS011;66135;0.000;0.000;2023-08-08T00:59:02;1.60;;;1.20;;
77160;SDS011;66135;0.000;0.000;2023-08-08T01:01:28;0.60;;;0.52;;
77160;SDS011;66135;0.000;0.000;2023-08-08T01:03:53;0.50;;;0.50;;
77160;SDS011;66135;0.000;0.000;2023-08-08T01:06:33;0.75;;;0.70;;
77160;SDS011;66135;0.000;0.000;2023-08-08T01:09:30;0.80;;;0.80;;
77160;SDS011;66135;0.000;0.000;2023-08-08T01:12:04;0.75;;;0.68;;
77160;SDS011;66135;0.000;0.000;2023-08-08T01:14:33;0.98;;;0.90;;
77160;SDS011;66135;0.000;0.000;2023-08-08T01:17:00;1.00;;;0.50;;
77160;SDS011;66135;0.000;0.000;2023-08-08T01:19:27;0.73;;;0.73;;
77160;SDS011;66135;0.000;0.000;2023-08-08T01:21:54;0.75;;;0.57;;
77160;SDS011;66135;0.000;0.000;2023-08-08T01:24:24;0.63;;;0.22;;
77160;SDS011;66135;0.000;0.000;2023-08-08T01:26:54;1.45;;;0.82;;
77160;SDS011;66135;0.000;0.000;2023-08-08T01:29:21;1.50;;;1.08;;
77160;SDS011;66135;0.000;0.000;2023-08-08T01:31:46;0.85;;;0.85;;
77160;SDS011;66135;0.000;0.000;2023-08-08T01:34:12;0.80;;;0.80;;
77160;SDS011;66135;0.000;0.000;2023-08-08T01:39:25;0.70;;;0.70;;
77160;SDS011;66135;0.000;0.000;2023-08-08T01:41:56;0.60;;;0.60;;
77160;SDS011;66135;0.000;0.000;2023-08-08T01:44:23;0.88;;;0.88;;
77160;SDS011;66135;0.000;0.000;2023-08-08T01:46:50;0.93;;;0.60;;
77160;SDS011;66135;0.000;0.000;2023-08-08T01:49:16;1.25;;;0.65;;
77160;SDS011;66135;0.000;0.000;2023-08-08T01:51:41;1.45;;;1.05;;
77160;SDS011;66135;0.000;0.000;2023-08-08T01:54:07;1.10;;;1.10;;
77160;SDS011;66135;0.000;0.000;2023-08-08T01:58:57;0.85;;;0.68;;
77160;SDS011;66135;0.000;0.000;2023-08-08T02:03:48;0.60;;;0.53;;
77160;SDS011;66135;0.000;0.000;2023-08-08T02:08:39;1.13;;;1.00;;
77160;SDS011;66135;0.000;0.000;2023-08-08T02:11:04;1.40;;;0.75;;
77160;SDS011;66135;0.000;0.000;2023-08-08T02:13:30;0.70;;;0.70;;
77160;SDS011;66135;0.000;0.000;2023-08-08T02:15:55;1.27;;;1.17;;
77160;SDS011;66135;0.000;0.000;2023-08-08T02:18:21;0.95;;;0.60;;
77160;SDS011;66135;0.000;0.000;2023-08-08T02:23:11;0.70;;;0.68;;
77160;SDS011;66135;0.000;0.000;2023-08-08T02:28:02;1.27;;;1.10;;
77160;SDS011;66135;0.000;0.000;2023-08-08T02:32:53;0.60;;;0.60;;
77160;SDS011;66135;0.000;0.000;2023-08-08T02:35:19;1.20;;;1.10;;
77160;SDS011;66135;0.000;0.000;2023-08-08T02:40:09;0.70;;;0.70;;
77160;SDS011;66135;0.000;0.000;2023-08-08T02:45:00;0.82;;;0.82;;
77160;SDS011;66135;0.000;0.000;2023-08-08T02:49:51;0.93;;;0.93;;
77160;SDS011;66135;0.000;0.000;2023-08-08T02:54:42;0.50;;;0.23;;
77160;SDS011;66135;0.000;0.000;2023-08-08T02:59:35;0.90;;;0.88;;
77160;SDS011;66135;0.000;0.000;2023-08-08T03:02:01;1.17;;;0.10;;
77160;SDS011;66135;0.000;0.000;2023-08-08T03:04:26;1.25;;;1.10;;
77160;SDS011;66135;0.000;0.000;2023-08-08T03:09:17;0.80;;;0.60;;
77160;SDS011;66135;0.000;0.000;2023-08-08T03:11:42;0.82;;;0.60;;
77160;SDS011;66135;0.000;0.000;2023-08-08T03:16:34;1.08;;;0.63;;
77160;SDS011;66135;0.000;0.000;2023-08-08T03:18:59;0.90;;;0.80;;
77160;SDS011;66135;0.000;0.000;2023-08-08T03:21:25;1.00;;;0.80;;
77160;SDS011;66135;0.000;0.000;2023-08-08T03:26:15;0.93;;;0.83;;
77160;SDS011;66135;0.000;0.000;2023-08-08T03:28:41;0.68;;;0.68;;
77160;SDS011;66135;0.000;0.000;2023-08-08T03:33:32;0.93;;;0.93;;
77160;SDS011;66135;0.000;0.000;2023-08-08T03:35:57;1.52;;;0.63;;
77160;SDS011;66135;0.000;0.000;2023-08-08T03:40:48;0.90;;;0.90;;
77160;SDS011;66135;0.000;0.000;2023-08-08T03:45:39;0.77;;;0.75;;
77160;SDS011;66135;0.000;0.000;2023-08-08T03:50:30;0.65;;;0.63;;
77160;SDS011;66135;0.000;0.000;2023-08-08T03:52:55;0.70;;;0.70;;
77160;SDS011;66135;0.000;0.000;2023-08-08T03:57:46;0.50;;;0.22;;
77160;SDS011;66135;0.000;0.000;2023-08-08T04:00:11;1.23;;;0.63;;
77160;SDS011;66135;0.000;0.000;2023-08-08T04:05:02;1.83;;;0.90;;
77160;SDS011;66135;0.000;0.000;2023-08-08T04:07:28;1.33;;;1.10;;
77160;SDS011;66135;0.000;0.000;2023-08-08T04:09:53;0.73;;;0.73;;
77160;SDS011;66135;0.000;0.000;2023-08-08T04:12:18;0.73;;;0.70;;
77160;SDS011;66135;0.000;0.000;2023-08-08T04:17:09;0.70;;;0.70;;
77160;SDS011;66135;0.000;0.000;2023-08-08T04:19:34;1.40;;;1.05;;
77160;SDS011;66135;0.000;0.000;2023-08-08T04:22:00;1.25;;;1.15;;
77160;SDS011;66135;0.000;0.000;2023-08-08T04:24:25;0.82;;;0.77;;
77160;SDS011;66135;0.000;0.000;2023-08-08T04:26:51;1.25;;;0.82;;
77160;SDS011;66135;0.000;0.000;2023-08-08T04:29:16;1.02;;;0.80;;
77160;SDS011;66135;0.000;0.000;2023-08-08T04:31:41;1.40;;;0.80;;
77160;SDS011;66135;0.000;0.000;2023-08-08T04:34:07;0.70;;;0.70;;
77160;SDS011;66135;0.000;0.000;2023-08-08T04:36:32;0.77;;;0.77;;
77160;SDS011;66135;0.000;0.000;2023-08-08T04:38:58;0.80;;;0.63;;
77160;SDS011;66135;0.000;0.000;2023-08-08T04:41:23;1.27;;;1.20;;
77160;SDS011;66135;0.000;0.000;2023-08-08T04:43:49;1.45;;;1.13;;
77160;SDS011;66135;0.000;0.000;2023-08-08T04:46:14;1.73;;;0.88;;
77160;SDS011;66135;0.000;0.000;2023-08-08T04:48:39;2.70;;;0.55;;
77160;SDS011;66135;0.000;0.000;2023-08-08T04:51:05;0.75;;;0.73;;
77160;SDS011;66135;0.000;0.000;2023-08-08T04:53:31;1.40;;;0.63;;
77160;SDS011;66135;0.000;0.000;2023-08-08T04:55:56;1.95;;;0.77;;
77160;SDS011;66135;0.000;0.000;2023-08-08T04:58:22;1.45;;;1.35;;
77160;SDS011;66135;0.000;0.000;2023-08-08T05:00:47;1.10;;;1.00;;
77160;SDS011;66135;0.000;0.000;2023-08-08T05:03:13;2.20;;;0.82;;
77160;SDS011;66135;0.000;0.000;2023-08-08T05:05:38;1.17;;;0.68;;
77160;SDS011;66135;0.000;0.000;2023-08-08T05:08:04;1.13;;;1.02;;
77160;SDS011;66135;0.000;0.000;2023-08-08T05:10:29;1.10;;;0.73;;
77160;SDS011;66135;0.000;0.000;2023-08-08T05:12:56;1.27;;;1.08;;
77160;SDS011;66135;0.000;0.000;2023-08-08T05:15:22;0.90;;;0.77;;
77160;SDS011;66135;0.000;0.000;2023-08-08T05:17:47;0.70;;;0.68;;
77160;SDS011;66135;0.000;0.000;2023-08-08T05:20:12;1.77;;;0.63;;
77160;SDS011;66135;0.000;0.000;2023-08-08T05:22:38;3.80;;;1.10;;
77160;SDS011;66135;0.000;0.000;2023-08-08T05:25:04;0.88;;;0.73;;
77160;SDS011;66135;0.000;0.000;2023-08-08T05:29:55;0.97;;;0.30;;
77160;SDS011;66135;0.000;0.000;2023-08-08T05:32:20;1.60;;;0.90;;
77160;SDS011;66135;0.000;0.000;2023-08-08T05:34:46;1.55;;;1.08;;
77160;SDS011;66135;0.000;0.000;2023-08-08T05:37:11;0.88;;;0.10;;
77160;SDS011;66135;0.000;0.000;2023-08-08T05:39:37;1.67;;;0.95;;
77160;SDS011;66135;0.000;0.000;2023-08-08T05:42:02;1.20;;;0.88;;
77160;SDS011;66135;0.000;0.000;2023-08-08T05:44:28;1.88;;;1.20;;
77160;SDS011;66135;0.000;0.000;2023-08-08T05:49:18;0.93;;;0.93;;
77160;SDS011;66135;0.000;0.000;2023-08-08T05:51:44;0.88;;;0.85;;
77160;SDS011;66135;0.000;0.000;2023-08-08T05:56:36;0.85;;;0.63;;
77160;SDS011;66135;0.000;0.000;2023-08-08T05:59:02;3.28;;;1.13;;
77160;SDS011;66135;0.000;0.000;2023-08-08T06:01:28;1.70;;;0.80;;
77160;SDS011;66135;0.000;0.000;2023-08-08T06:03:54;3.55;;;0.90;;
77160;SDS011;66135;0.000;0.000;2023-08-08T06:06:20;3.33;;;1.63;;
77160;SDS011;66135;0.000;0.000;2023-08-08T06:08:45;3.03;;;0.90;;
77160;SDS011;66135;0.000;0.000;2023-08-08T06:11:11;2.15;;;1.00;;
77160;SDS011;66135;0.000;0.000;2023-08-08T06:16:02;1.77;;;0.80;;
77160;SDS011;66135;0.000;0.000;2023-08-08T06:18:31;1.30;;;0.90;;
77160;SDS011;66135;0.000;0.000;2023-08-08T06:20:57;2.33;;;0.95;;
77160;SDS011;66135;0.000;0.000;2023-08-08T06:23:22;1.88;;;0.85;;
77160;SDS011;66135;0.000;0.000;2023-08-08T06:25:48;1.95;;;0.40;;
77160;SDS011;66135;0.000;0.000;2023-08-08T06:30:39;11.33;;;1.20;;
77160;SDS011;66135;0.000;0.000;2023-08-08T06:33:04;1.35;;;0.68;;
77160;SDS011;66135;0.000;0.000;2023-08-08T06:35:30;3.08;;;1.35;;
77160;SDS011;66135;0.000;0.000;2023-08-08T06:40:20;4.33;;;1.30;;
77160;SDS011;66135;0.000;0.000;2023-08-08T06:45:11;4.28;;;1.13;;
77160;SDS011;66135;0.000;0.000;2023-08-08T06:47:37;7.10;;;1.40;;
77160;SDS011;66135;0.000;0.000;2023-08-08T06:50:02;2.42;;;1.17;;
77160;SDS011;66135;0.000;0.000;2023-08-08T06:52:28;3.03;;;1.20;;
77160;SDS011;66135;0.000;0.000;2023-08-08T06:54:53;7.95;;;1.60;;
77160;SDS011;66135;0.000;0.000;2023-08-08T06:59:44;8.00;;;1.40;;
77160;SDS011;66135;0.000;0.000;2023-08-08T07:02:15;8.95;;;1.92;;
77160;SDS011;66135;0.000;0.000;2023-08-08T07:04:41;7.00;;;0.98;;
77160;SDS011;66135;0.000;0.000;2023-08-08T07:07:06;7.47;;;1.30;;
77160;SDS011;66135;0.000;0.000;2023-08-08T07:09:31;4.28;;;1.63;;
77160;SDS011;66135;0.000;0.000;2023-08-08T07:11:58;5.45;;;1.55;;
77160;SDS011;66135;0.000;0.000;2023-08-08T07:14:23;5.45;;;1.38;;
77160;SDS011;66135;0.000;0.000;2023-08-08T07:19:14;7.60;;;1.92;;
77160;SDS011;66135;0.000;0.000;2023-08-08T07:21:40;5.80;;;1.55;;
77160;SDS011;66135;0.000;0.000;2023-08-08T07:24:06;4.70;;;1.25;;
77160;SDS011;66135;0.000;0.000;2023-08-08T07:28:56;5.10;;;1.17;;
77160;SDS011;66135;0.000;0.000;2023-08-08T07:31:22;3.67;;;1.50;;
77160;SDS011;66135;0.000;0.000;2023-08-08T07:33:47;4.40;;;0.60;;
77160;SDS011;66135;0.000;0.000;2023-08-08T07:38:38;4.10;;;1.53;;
77160;SDS011;66135;0.000;0.000;2023-08-08T07:43:28;6.17;;;0.80;;
77160;SDS011;66135;0.000;0.000;2023-08-08T07:45:54;5.35;;;1.50;;
77160;SDS011;66135;0.000;0.000;2023-08-08T07:48:19;5.68;;;0.68;;
77160;SDS011;66135;0.000;0.000;2023-08-08T07:53:10;3.37;;;1.13;;
77160;SDS011;66135;0.000;0.000;2023-08-08T07:58:00;3.23;;;1.20;;
77160;SDS011;66135;0.000;0.000;2023-08-08T08:02:51;3.25;;;0.70;;
77160;SDS011;66135;0.000;0.000;2023-08-08T08:05:17;4.35;;;1.20;;
77160;SDS011;66135;0.000;0.000;2023-08-08T08:07:43;5.03;;;1.80;;
77160;SDS011;66135;0.000;0.000;2023-08-08T08:10:09;4.22;;;1.08;;
77160;SDS011;66135;0.000;0.000;2023-08-08T08:12:38;3.28;;;1.23;;
77160;SDS011;66135;0.000;0.000;2023-08-08T08:15:05;3.25;;;1.40;;
77160;SDS011;66135;0.000;0.000;2023-08-08T08:17:32;5.45;;;1.92;;
77160;SDS011;66135;0.000;0.000;2023-08-08T08:19:57;4.35;;;1.00;;
77160;SDS011;66135;0.000;0.000;2023-08-08T08:22:23;5.30;;;1.45;;
77160;SDS011;66135;0.000;0.000;2023-08-08T08:24:49;9.73;;;1.77;;
77160;SDS011;66135;0.000;0.000;2023-08-08T08:27:15;2.10;;;1.20;;
77160;SDS011;66135;0.000;0.000;2023-08-08T08:29:40;8.18;;;1.40;;
77160;SDS011;66135;0.000;0.000;2023-08-08T08:32:06;5.10;;;1.98;;
77160;SDS011;66135;0.000;0.000;2023-08-08T08:34:31;2.45;;;1.38;;
77160;SDS011;66135;0.000;0.000;2023-08-08T08:36:57;3.03;;;1.90;;
77160;SDS011;66135;0.000;0.000;2023-08-08T08:39:22;3.10;;;1.48;;
77160;SDS011;66135;0.000;0.000;2023-08-08T08:41:49;3.22;;;1.00;;
77160;SDS011;66135;0.000;0.000;2023-08-08T08:44:21;2.70;;;1.40;;
77160;SDS011;66135;0.000;0.000;2023-08-08T08:46:47;2.20;;;1.20;;
77160;SDS011;66135;0.000;0.000;2023-08-08T08:49:15;4.43;;;1.70;;
77160;SDS011;66135;0.000;0.000;2023-08-08T08:51:44;5.05;;;1.42;;
77160;SDS011;66135;0.000;0.000;2023-08-08T08:54:09;4.75;;;1.38;;
77160;SDS011;66135;0.000;0.000;2023-08-08T08:56:35;4.70;;;1.35;;
77160;SDS011;66135;0.000;0.000;2023-08-08T08:59:01;6.28;;;2.10;;
77160;SDS011;66135;0.000;0.000;2023-08-08T09:01:27;3.20;;;1.35;;
77160;SDS011;66135;0.000;0.000;2023-08-08T09:03:53;3.78;;;1.40;;
77160;SDS011;66135;0.000;0.000;2023-08-08T09:06:19;7.05;;;1.95;;
77160;SDS011;66135;0.000;0.000;2023-08-08T09:08:46;2.45;;;1.15;;
77160;SDS011;66135;0.000;0.000;2023-08-08T09:11:12;4.10;;;1.52;;
77160;SDS011;66135;0.000;0.000;2023-08-08T09:13:38;4.82;;;1.17;;
77160;SDS011;66135;0.000;0.000;2023-08-08T09:16:05;5.95;;;1.50;;
77160;SDS011;66135;0.000;0.000;2023-08-08T09:18:31;3.40;;;1.65;;
77160;SDS011;66135;0.000;0.000;2023-08-08T09:20:58;3.20;;;1.50;;
77160;SDS011;66135;0.000;0.000;2023-08-08T09:23:23;3.30;;;1.85;;
77160;SDS011;66135;0.000;0.000;2023-08-08T09:28:14;1.83;;;0.50;;
77160;SDS011;66135;0.000;0.000;2023-08-08T09:30:41;2.88;;;1.15;;
77160;SDS011;66135;0.000;0.000;2023-08-08T09:33:07;3.05;;;1.38;;
77160;SDS011;66135;0.000;0.000;2023-08-08T09:35:32;3.45;;;1.75;;
77160;SDS011;66135;0.000;0.000;2023-08-08T09:37:59;3.90;;;1.75;;
77160;SDS011;66135;0.000;0.000;2023-08-08T09:40:24;3.53;;;2.05;;
77160;SDS011;66135;0.000;0.000;2023-08-08T09:42:53;4.18;;;1.65;;
77160;SDS011;66135;0.000;0.000;2023-08-08T09:45:18;3.58;;;1.40;;
77160;SDS011;66135;0.000;0.000;2023-08-08T09:47:45;3.45;;;1.70;;
77160;SDS011;66135;0.000;0.000;2023-08-08T09:50:11;3.38;;;0.93;;
77160;SDS011;66135;0.000;0.000;2023-08-08T09:52:36;4.32;;;1.88;;
77160;SDS011;66135;0.000;0.000;2023-08-08T09:55:05;3.53;;;2.15;;
77160;SDS011;66135;0.000;0.000;2023-08-08T09:57:31;3.47;;;2.08;;
77160;SDS011;66135;0.000;0.000;2023-08-08T09:59:57;5.88;;;0.90;;
77160;SDS011;66135;0.000;0.000;2023-08-08T10:02:23;3.72;;;2.08;;
77160;SDS011;66135;0.000;0.000;2023-08-08T10:07:14;4.03;;;1.92;;
77160;SDS011;66135;0.000;0.000;2023-08-08T10:12:06;6.82;;;2.38;;
77160;SDS011;66135;0.000;0.000;2023-08-08T10:14:34;6.25;;;2.20;;
77160;SDS011;66135;0.000;0.000;2023-08-08T10:17:04;2.40;;;1.65;;
77160;SDS011;66135;0.000;0.000;2023-08-08T10:19:30;2.53;;;1.13;;
77160;SDS011;66135;0.000;0.000;2023-08-08T10:21:57;6.07;;;0.85;;
77160;SDS011;66135;0.000;0.000;2023-08-08T10:24:25;3.92;;;1.70;;
77160;SDS011;66135;0.000;0.000;2023-08-08T10:26:50;2.88;;;1.40;;
77160;SDS011;66135;0.000;0.000;2023-08-08T10:29:25;2.08;;;1.40;;
77160;SDS011;66135;0.000;0.000;2023-08-08T10:31:52;2.42;;;1.27;;
77160;SDS011;66135;0.000;0.000;2023-08-08T10:34:19;3.28;;;0.93;;
77160;SDS011;66135;0.000;0.000;2023-08-08T10:36:50;2.42;;;1.55;;
77160;SDS011;66135;0.000;0.000;2023-08-08T10:39:17;2.47;;;1.25;;
77160;SDS011;66135;0.000;0.000;2023-08-08T10:41:44;3.15;;;1.50;;
77160;SDS011;66135;0.000;0.000;2023-08-08T10:44:12;4.32;;;1.63;;
77160;SDS011;66135;0.000;0.000;2023-08-08T10:46:39;1.65;;;1.30;;
77160;SDS011;66135;0.000;0.000;2023-08-08T10:49:06;3.92;;;1.50;;
77160;SDS011;66135;0.000;0.000;2023-08-08T10:51:33;3.35;;;1.40;;
77160;SDS011;66135;0.000;0.000;2023-08-08T10:54:04;3.53;;;1.90;;
77160;SDS011;66135;0.000;0.000;2023-08-08T10:56:36;3.45;;;1.38;;
77160;SDS011;66135;0.000;0.000;2023-08-08T10:59:11;3.58;;;1.75;;
77160;SDS011;66135;0.000;0.000;2023-08-08T11:01:40;4.35;;;1.83;;
77160;SDS011;66135;0.000;0.000;2023-08-08T11:04:05;2.53;;;1.83;;
77160;SDS011;66135;0.000;0.000;2023-08-08T11:06:32;2.97;;;1.42;;
77160;SDS011;66135;0.000;0.000;2023-08-08T11:08:58;3.33;;;1.75;;
77160;SDS011;66135;0.000;0.000;2023-08-08T11:11:26;2.85;;;1.40;;
77160;SDS011;66135;0.000;0.000;2023-08-08T11:13:51;3.20;;;1.90;;
77160;SDS011;66135;0.000;0.000;2023-08-08T11:16:18;2.70;;;1.40;;
77160;SDS011;66135;0.000;0.000;2023-08-08T11:18:44;3.70;;;2.17;;
77160;SDS011;66135;0.000;0.000;2023-08-08T11:21:10;3.15;;;2.10;;
77160;SDS011;66135;0.000;0.000;2023-08-08T11:23:36;5.38;;;1.52;;
77160;SDS011;66135;0.000;0.000;2023-08-08T11:26:03;2.25;;;0.70;;
77160;SDS011;66135;0.000;0.000;2023-08-08T11:28:29;2.45;;;1.52;;
77160;SDS011;66135;0.000;0.000;2023-08-08T11:30:55;3.28;;;1.55;;
77160;SDS011;66135;0.000;0.000;2023-08-08T11:33:20;2.08;;;1.83;;
77160;SDS011;66135;0.000;0.000;2023-08-08T11:35:47;1.95;;;1.67;;
77160;SDS011;66135;0.000;0.000;2023-08-08T11:38:14;2.55;;;2.25;;
77160;SDS011;66135;0.000;0.000;2023-08-08T11:40:41;3.08;;;1.55;;
77160;SDS011;66135;0.000;0.000;2023-08-08T11:43:07;2.85;;;1.80;;
77160;SDS011;66135;0.000;0.000;2023-08-08T11:45:32;4.00;;;1.25;;
77160;SDS011;66135;0.000;0.000;2023-08-08T11:47:59;2.03;;;1.50;;
77160;SDS011;66135;0.000;0.000;2023-08-08T11:50:25;2.08;;;1.88;;
77160;SDS011;66135;0.000;0.000;2023-08-08T11:52:53;2.70;;;1.67;;
77160;SDS011;66135;0.000;0.000;2023-08-08T11:55:20;3.75;;;2.10;;
77160;SDS011;66135;0.000;0.000;2023-08-08T11:57:47;2.13;;;2.03;;
77160;SDS011;66135;0.000;0.000;2023-08-08T12:00:13;2.97;;;1.60;;
77160;SDS011;66135;0.000;0.000;2023-08-08T12:02:40;1.92;;;0.70;;
77160;SDS011;66135;0.000;0.000;2023-08-08T12:05:07;4.43;;;2.35;;
77160;SDS011;66135;0.000;0.000;2023-08-08T12:07:37;3.95;;;1.67;;
77160;SDS011;66135;0.000;0.000;2023-08-08T12:10:14;2.47;;;1.92;;
77160;SDS011;66135;0.000;0.000;2023-08-08T12:12:44;1.88;;;1.77;;
77160;SDS011;66135;0.000;0.000;2023-08-08T12:15:10;2.65;;;1.73;;
77160;SDS011;66135;0.000;0.000;2023-08-08T12:17:36;2.15;;;1.65;;
77160;SDS011;66135;0.000;0.000;2023-08-08T12:20:06;3.60;;;1.40;;
77160;SDS011;66135;0.000;0.000;2023-08-08T12:22:33;2.00;;;1.35;;
77160;SDS011;66135;0.000;0.000;2023-08-08T12:24:58;2.25;;;1.50;;
77160;SDS011;66135;0.000;0.000;2023-08-08T12:27:24;1.92;;;1.80;;
77160;SDS011;66135;0.000;0.000;2023-08-08T12:29:49;3.72;;;2.10;;
77160;SDS011;66135;0.000;0.000;2023-08-08T12:32:15;1.58;;;1.48;;
77160;SDS011;66135;0.000;0.000;2023-08-08T12:34:40;2.47;;;1.85;;
77160;SDS011;66135;0.000;0.000;2023-08-08T12:37:05;1.52;;;0.70;;
77160;SDS011;66135;0.000;0.000;2023-08-08T12:39:31;3.05;;;2.38;;
